メインページ
METAR-TAF:

METAR-TAF

空港 :

Ilo, ペルー

緯度: 17-41-45S, 経度: 071-20-35W, 海抜: 22m

現時点の気象観測

当レポートは9時間32分前の21:00(UTC)に作成
南/南西の風 6kt
気温 23°C
湿度 73%
気圧 1012 hPa
視程10km以上
高度3000ftの雲はほとんどない
高度4000ftの千切れ雲あり

METAR: SPLO 122100Z 20006KT 9999 FEW030 BKN040 23/18 Q1012 RMK TX 24.6 PP000

時間: 01:32 (06:32 UTC)

予報

当レポートは13時間32分前の17:00(UTC)に作成
予報は12日の 18時(UTC)から 13日の 18時(UTC)まで有効
南/南西の風 8kt
視程10km以上
高度3000ftの雲は散在している

TAF: SPLO 121700Z 1218/1318 21008KT 9999 SCT030 TX24/1219Z TN18/1311Z

4,000以上の空港の気象観測と天気予報(METAR報とTAF報)

利用可能な観測所は地図上に黄色い丸と赤い丸で示す。

丸の上にカーソルを重ねると観測所名を参照できる。

次にクリックすると気象観測と天気予報を参照できる。

マップの切り替え:黒色「×」印の緑ボタンをクリックして拡大、「-」印の緑ボタンをクリックして縮小、緑色の三角印をクリックして隣りの地図に切り替え


METAR-TAF: